Time;durP1;ratioP1;P1;durP2;ratioP2;P2;SDS_P1;SDS_P2;PMS_P1;PMS_P2;Temp;Humidity;BMP_temperature;BMP_pressure;BME280_temperature;BME280_humidity;BME280_pressure;Samples;Min_cycle;Max_cycle;Signal;HPM_P1;HPM_P2
2022/05/03 00:00:45;;;;;;;;;;;;;;;21.78;32.16;100956.94;2049489;29;793;-55
2022/05/03 00:01:56;;;;;;;;;;;;;;;21.77;32.21;100953.38;2049460;29;1049;-55
2022/05/03 00:02:56;;;;;;;;;;;;;;;21.75;32.92;100957.94;2049321;29;1919;-55
2022/05/03 00:04:03;;;;;;;;;;;;;;;21.75;32.96;100957.94;2049547;29;802;-55
2022/05/03 00:05:07;;;;;;;;;;;;;;;21.76;32.87;100959.72;2049551;29;974;-55
2022/05/03 00:06:13;;;;;;;;;;;;;;;21.74;32.79;100961.59;2049378;29;914;-55
2022/05/03 00:07:22;;;;;;;;;;;;;;;21.74;32.60;100958.00;2049528;29;863;-55
2022/05/03 00:08:38;;;;;;;;;;;;;;;21.74;32.14;100972.38;2049415;29;851;-55
2022/05/03 00:09:41;;;;;;;;;;;;;;;21.73;32.85;100970.59;2049448;29;950;-55
2022/05/03 00:11:00;;;;;;;;;;;;;;;21.73;32.14;100967.00;2049435;29;1010;-55
2022/05/03 00:12:03;;;;;;;;;;;;;;;21.70;32.74;100969.81;2049442;29;982;-55
2022/05/03 00:13:05;;;;;;;;;;;;;;;21.70;32.68;100973.41;2049113;29;1319;-55
2022/05/03 00:14:25;;;;;;;;;;;;;;;21.70;33.08;100975.22;2049392;29;827;-55
2022/05/03 00:15:26;;;;;;;;;;;;;;;21.71;32.68;100976.97;2049563;29;978;-56
2022/05/03 00:16:27;;;;;;;;;;;;;;;21.71;33.05;100977.88;2049318;29;994;-55
2022/05/03 00:17:28;;;;;;;;;;;;;;;21.70;32.89;100972.53;2049415;29;1162;-55
2022/05/03 00:18:28;;;;;;;;;;;;;;;21.69;32.09;100976.16;2049440;29;1344;-55
2022/05/03 00:19:28;;;;;;;;;;;;;;;21.68;32.75;100983.38;2049535;29;853;-55
2022/05/03 00:20:29;;;;;;;;;;;;;;;21.68;32.84;100983.38;2049345;28;852;-56
2022/05/03 00:21:29;;;;;;;;;;;;;;;21.67;32.11;100981.59;2049449;29;816;-55
2022/05/03 00:22:29;;;;;;;;;;;;;;;21.67;32.51;100987.00;2056192;28;1009;-55
2022/05/03 00:23:30;;;;;;;;;;;;;;;21.66;32.88;100979.84;2065380;28;1894;-55
2022/05/03 00:24:30;;;;;;;;;;;;;;;21.67;32.64;100987.00;2065359;28;799;-55
2022/05/03 00:25:32;;;;;;;;;;;;;;;21.66;32.18;100993.31;2065548;28;771;-55
2022/05/03 00:26:32;;;;;;;;;;;;;;;21.67;32.82;100994.19;2065401;28;886;-55
2022/05/03 00:27:33;;;;;;;;;;;;;;;21.66;32.42;100987.03;2065457;28;998;-55
2022/05/03 00:28:33;;;;;;;;;;;;;;;21.65;32.12;100994.25;2065368;28;799;-55
2022/05/03 00:29:33;;;;;;;;;;;;;;;21.65;32.44;100990.66;2065415;28;962;-55
2022/05/03 00:30:34;;;;;;;;;;;;;;;21.65;32.44;100987.97;2065739;28;1059;-55
2022/05/03 00:31:35;;;;;;;;;;;;;;;21.63;32.79;100996.13;2065409;28;950;-55
2022/05/03 00:32:35;;;;;;;;;;;;;;;21.63;32.43;100996.13;2065357;28;853;-55
2022/05/03 00:33:35;;;;;;;;;;;;;;;21.63;32.78;100988.03;2065416;28;813;-56
2022/05/03 00:34:36;;;;;;;;;;;;;;;21.62;32.67;100997.06;2065284;28;910;-55
2022/05/03 00:35:37;;;;;;;;;;;;;;;21.61;32.77;100996.13;2065394;28;1041;-55
2022/05/03 00:36:37;;;;;;;;;;;;;;;21.60;32.37;100994.38;2076106;28;910;-55
2022/05/03 00:37:38;;;;;;;;;;;;;;;21.61;32.16;100997.97;2090879;28;1238;-55
2022/05/03 00:38:38;;;;;;;;;;;;;;;21.60;32.25;101001.59;2090843;28;1044;-55
2022/05/03 00:39:38;;;;;;;;;;;;;;;21.59;32.61;101000.69;2090925;28;666;-55
2022/05/03 00:40:44;;;;;;;;;;;;;;;21.60;32.54;101007.84;2090827;28;767;-55
2022/05/03 00:41:44;;;;;;;;;;;;;;;21.60;32.32;101001.59;2090928;28;815;-55
2022/05/03 00:42:46;;;;;;;;;;;;;;;21.60;32.17;101004.28;2090211;28;2739;-55
2022/05/03 00:43:51;;;;;;;;;;;;;;;21.61;32.38;101008.75;2090144;28;1902;-55
2022/05/03 00:45:01;;;;;;;;;;;;;;;21.60;32.79;101001.59;2090873;28;1048;-55
2022/05/03 00:46:04;;;;;;;;;;;;;;;21.60;32.82;101007.00;2090890;28;912;-55
2022/05/03 00:47:08;;;;;;;;;;;;;;;21.58;32.52;101017.81;2091010;28;985;-55
2022/05/03 00:48:21;;;;;;;;;;;;;;;21.58;32.08;101015.13;2090935;28;874;-55
2022/05/03 00:49:47;;;;;;;;;;;;;;;21.59;32.45;101007.94;2090936;28;791;-55
2022/05/03 00:51:03;;;;;;;;;;;;;;;21.59;32.66;101016.00;2065185;28;1038;-55
2022/05/03 00:52:06;;;;;;;;;;;;;;;21.59;32.25;101013.31;2065296;28;768;-55
2022/05/03 00:53:15;;;;;;;;;;;;;;;21.58;32.05;101019.63;2065350;28;1368;-55
2022/05/03 00:54:30;;;;;;;;;;;;;;;21.57;32.66;101015.19;2065250;28;867;-55
2022/05/03 00:55:49;;;;;;;;;;;;;;;21.57;32.65;101012.47;2065355;28;883;-55
2022/05/03 00:57:08;;;;;;;;;;;;;;;21.57;31.90;101017.88;2065379;28;970;-55
2022/05/03 00:58:27;;;;;;;;;;;;;;;21.58;32.29;101019.63;2065251;28;985;-55
2022/05/03 00:59:46;;;;;;;;;;;;;;;21.57;32.01;101025.97;2065441;28;1025;-55
2022/05/03 01:00:54;;;;;;;;;;;;;;;21.57;31.94;101024.13;2057335;28;1283;-55
2022/05/03 01:01:59;;;;;;;;;;;;;;;21.57;32.12;101024.13;2058125;28;780;-55
2022/05/03 01:02:59;;;;;;;;;;;;;;;21.57;31.77;101026.81;2065128;28;1997;-55
2022/05/03 01:04:05;;;;;;;;;;;;;;;21.57;32.15;101032.22;2065242;28;882;-55
2022/05/03 01:05:12;;;;;;;;;;;;;;;21.57;32.36;101025.97;2065343;28;1025;-55
2022/05/03 01:06:15;;;;;;;;;;;;;;;21.56;32.52;101027.75;2065256;28;820;-55
2022/05/03 01:07:30;;;;;;;;;;;;;;;21.55;31.85;101026.00;2065310;28;1036;-56
2022/05/03 01:09:00;;;;;;;;;;;;;;;21.55;31.74;101031.38;2065179;28;935;-55
2022/05/03 01:10:13;;;;;;;;;;;;;;;21.56;31.97;101027.75;2049111;28;1289;-55
2022/05/03 01:11:16;;;;;;;;;;;;;;;21.56;31.88;101033.16;2050578;29;1144;-55
2022/05/03 01:12:16;;;;;;;;;;;;;;;21.56;32.51;101034.97;2050771;29;788;-55
2022/05/03 01:13:36;;;;;;;;;;;;;;;21.55;32.42;101036.78;2050665;29;808;-55
2022/05/03 01:14:49;;;;;;;;;;;;;;;21.55;32.38;101036.78;2050574;29;1948;-55
2022/05/03 01:15:55;;;;;;;;;;;;;;;21.56;32.17;101040.38;2050639;29;1150;-55
2022/05/03 01:16:59;;;;;;;;;;;;;;;21.55;32.50;101035.91;2050717;29;897;-55
2022/05/03 01:17:59;;;;;;;;;;;;;;;21.54;31.71;101045.81;2050541;29;878;-55
2022/05/03 01:19:18;;;;;;;;;;;;;;;21.56;31.63;101048.47;2050720;29;883;-55
2022/05/03 01:20:30;;;;;;;;;;;;;;;21.55;32.40;101047.56;2050619;29;884;-55
2022/05/03 01:21:48;;;;;;;;;;;;;;;21.55;31.84;101047.56;2050574;29;1096;-55
2022/05/03 01:23:15;;;;;;;;;;;;;;;21.55;32.32;101052.09;2050664;29;1037;-55
2022/05/03 01:24:42;;;;;;;;;;;;;;;21.54;32.33;101051.19;2050749;28;776;-55
2022/05/03 01:26:04;;;;;;;;;;;;;;;21.55;31.63;101062.88;2050516;29;1001;-55
2022/05/03 01:27:23;;;;;;;;;;;;;;;21.55;32.04;101063.75;2050649;29;816;-56
2022/05/03 01:28:26;;;;;;;;;;;;;;;21.55;32.39;101058.34;2059190;28;942;-55
2022/05/03 01:29:30;;;;;;;;;;;;;;;21.56;32.31;101064.63;2066668;28;791;-55
2022/05/03 01:30:31;;;;;;;;;;;;;;;21.55;32.40;101062.88;2066547;28;795;-55
2022/05/03 01:31:31;;;;;;;;;;;;;;;21.54;31.77;101061.97;2066628;28;878;-55
2022/05/03 01:32:32;;;;;;;;;;;;;;;21.53;31.90;101060.22;2066509;28;993;-55
2022/05/03 01:33:36;;;;;;;;;;;;;;;21.55;32.53;101068.25;2066604;28;801;-55
2022/05/03 01:34:37;;;;;;;;;;;;;;;21.52;31.63;101066.53;2066405;28;1035;-55
2022/05/03 01:35:38;;;;;;;;;;;;;;;21.55;31.79;101070.97;2066607;28;862;-55
2022/05/03 01:36:50;;;;;;;;;;;;;;;21.54;31.42;101067.38;2066546;28;835;-55
2022/05/03 01:37:57;;;;;;;;;;;;;;;21.54;31.70;101072.75;2066514;28;1033;-55
2022/05/03 01:39:04;;;;;;;;;;;;;;;21.53;32.13;101070.13;2066569;28;1068;-55
2022/05/03 01:40:04;;;;;;;;;;;;;;;21.53;31.53;101076.38;2066379;28;883;-55
2022/05/03 01:41:19;;;;;;;;;;;;;;;21.53;31.53;101065.59;2066494;28;962;-55
2022/05/03 01:42:51;;;;;;;;;;;;;;;21.53;31.97;101068.28;2066499;28;792;-55
2022/05/03 01:44:01;;;;;;;;;;;;;;;21.53;32.20;101067.44;2042619;29;1957;-55
2022/05/03 01:45:07;;;;;;;;;;;;;;;21.53;32.19;101067.44;2042579;29;990;-55
2022/05/03 01:46:15;;;;;;;;;;;;;;;21.53;31.96;101062.91;2042448;29;714;-55
2022/05/03 01:47:15;;;;;;;;;;;;;;;21.54;32.18;101069.19;2056883;28;975;-56
2022/05/03 01:48:18;;;;;;;;;;;;;;;21.54;31.75;101071.88;2058304;28;1708;-55
2022/05/03 01:51:05;;;;;;;;;;;;;;;21.51;31.70;101072.00;2066621;28;605;-55
2022/05/03 01:52:21;;;;;;;;;;;;;;;21.50;31.57;101065.69;2066452;28;970;-55
2022/05/03 01:53:30;;;;;;;;;;;;;;;21.51;32.05;101075.56;2066505;28;977;-55
2022/05/03 01:54:56;;;;;;;;;;;;;;;21.52;31.96;101069.22;2066396;28;1075;-55
2022/05/03 01:56:02;;;;;;;;;;;;;;;21.52;32.26;101071.06;2066330;28;859;-56
2022/05/03 01:57:12;;;;;;;;;;;;;;;21.51;31.83;101083.63;2058508;28;1417;-55
2022/05/03 01:58:12;;;;;;;;;;;;;;;21.52;31.61;101077.31;2059342;28;886;-55
2022/05/03 01:59:20;;;;;;;;;;;;;;;21.51;31.64;101080.94;2066613;28;839;-55
2022/05/03 02:00:22;;;;;;;;;;;;;;;21.51;31.76;101077.38;2066237;28;1127;-55
2022/05/03 02:01:41;;;;;;;;;;;;;;;21.51;32.01;101074.69;2066469;28;863;-55
2022/05/03 02:02:59;;;;;;;;;;;;;;;21.53;32.05;101080.91;2066179;28;1443;-55
2022/05/03 02:04:13;;;;;;;;;;;;;;;21.53;32.11;101078.22;2066304;28;1002;-55
2022/05/03 02:05:25;;;;;;;;;;;;;;;21.52;32.05;101085.41;2066378;28;1044;-55
2022/05/03 02:06:46;;;;;;;;;;;;;;;21.52;32.19;101088.09;2058178;28;913;-56
2022/05/03 02:07:53;;;;;;;;;;;;;;;21.51;31.78;101093.56;2060845;28;988;-55
2022/05/03 02:09:04;;;;;;;;;;;;;;;21.52;31.49;101093.47;2066291;28;993;-55
2022/05/03 02:10:12;;;;;;;;;;;;;;;21.51;32.18;101094.41;2066341;28;1243;-56
2022/05/03 02:11:12;;;;;;;;;;;;;;;21.53;32.39;101091.69;2066364;28;1032;-55
2022/05/03 02:12:17;;;;;;;;;;;;;;;21.52;31.71;101090.78;2066258;28;973;-55
2022/05/03 02:13:17;;;;;;;;;;;;;;;21.51;32.14;101093.56;2058347;28;1137;-55
2022/05/03 02:15:43;;;;;;;;;;;;;;;21.50;31.38;101092.66;2066425;28;594;-56
2022/05/03 02:16:53;;;;;;;;;;;;;;;21.49;32.23;101098.97;2066342;28;930;-56
2022/05/03 02:17:55;;;;;;;;;;;;;;;21.49;31.42;101101.66;2066197;28;835;-55
2022/05/03 02:18:55;;;;;;;;;;;;;;;21.50;31.54;101098.03;2066266;28;838;-55
2022/05/03 02:20:11;;;;;;;;;;;;;;;21.50;32.07;101097.19;2072224;28;1080;-55
2022/05/03 02:21:40;;;;;;;;;;;;;;;21.50;32.11;101099.88;2091819;28;878;-55
2022/05/03 02:22:46;;;;;;;;;;;;;;;21.52;31.43;101098.00;2065985;28;1063;-55
2022/05/03 02:24:03;;;;;;;;;;;;;;;21.52;31.27;101100.72;2066054;28;1890;-55
2022/05/03 02:25:21;;;;;;;;;;;;;;;21.50;31.53;101100.75;2066178;28;947;-56
2022/05/03 02:26:28;;;;;;;;;;;;;;;21.50;31.61;101111.53;2066173;28;962;-56
2022/05/03 02:27:34;;;;;;;;;;;;;;;21.49;31.78;101098.97;2066151;28;1052;-55
2022/05/03 02:28:53;;;;;;;;;;;;;;;21.49;31.15;101104.38;2066196;28;780;-55
2022/05/03 02:29:54;;;;;;;;;;;;;;;21.50;31.40;101105.25;2066163;28;854;-55
2022/05/03 02:30:54;;;;;;;;;;;;;;;21.51;31.17;101107.91;2066127;28;1021;-55
2022/05/03 02:32:02;;;;;;;;;;;;;;;21.50;31.29;101114.22;2066031;28;879;-55
2022/05/03 02:33:21;;;;;;;;;;;;;;;21.50;31.57;101107.97;2066127;28;764;-55
2022/05/03 02:34:35;;;;;;;;;;;;;;;21.50;31.61;101110.66;2066028;28;955;-55
2022/05/03 02:35:35;;;;;;;;;;;;;;;21.48;31.51;101116.97;2066183;28;796;-55
2022/05/03 02:36:42;;;;;;;;;;;;;;;21.48;31.94;101114.28;2066056;28;756;-55
2022/05/03 02:37:56;;;;;;;;;;;;;;;21.48;31.91;101111.59;2066023;28;1228;-56
2022/05/03 02:38:59;;;;;;;;;;;;;;;21.50;31.17;101121.44;2066182;28;1037;-55
2022/05/03 02:40:02;;;;;;;;;;;;;;;21.50;31.35;101108.81;2065965;28;902;-55
2022/05/03 02:41:03;;;;;;;;;;;;;;;21.50;31.82;101116.91;2066086;28;843;-55
2022/05/03 02:42:05;;;;;;;;;;;;;;;21.49;31.66;101115.16;2065997;28;807;-55
2022/05/03 02:43:07;;;;;;;;;;;;;;;21.48;31.27;101116.97;2065940;28;1989;-55
2022/05/03 02:44:07;;;;;;;;;;;;;;;21.48;31.90;101108.91;2065967;28;974;-55
2022/05/03 02:45:08;;;;;;;;;;;;;;;21.48;31.25;101111.59;2066549;28;922;-55
2022/05/03 02:46:11;;;;;;;;;;;;;;;21.49;31.69;101115.16;2065980;28;879;-56
2022/05/03 02:47:34;;;;;;;;;;;;;;;21.48;31.80;101122.38;2066013;28;1088;-55
2022/05/03 02:48:40;;;;;;;;;;;;;;;21.48;31.97;101124.19;2065794;28;2328;-55
2022/05/03 02:49:52;;;;;;;;;;;;;;;21.48;31.86;101125.06;2066203;28;851;-55
2022/05/03 02:50:53;;;;;;;;;;;;;;;21.47;31.99;101120.59;2066134;28;978;-55
2022/05/03 02:52:08;;;;;;;;;;;;;;;21.49;31.89;101128.63;2057899;28;804;-55
2022/05/03 02:53:15;;;;;;;;;;;;;;;21.47;31.20;101134.09;2059808;28;998;-55
2022/05/03 02:54:24;;;;;;;;;;;;;;;21.47;31.19;101128.69;2065951;28;958;-55
2022/05/03 02:55:24;;;;;;;;;;;;;;;21.47;31.19;101134.09;2066067;28;982;-55
2022/05/03 02:56:30;;;;;;;;;;;;;;;21.47;31.38;101134.09;2065771;28;1024;-55
2022/05/03 02:57:36;;;;;;;;;;;;;;;21.49;31.61;101131.31;2065958;28;862;-55
2022/05/03 02:58:47;;;;;;;;;;;;;;;21.50;31.89;101130.38;2065829;28;990;-55
2022/05/03 03:02:47;;;;;;;;;;;;;;;21.48;31.09;101138.53;2091250;28;931;-56
2022/05/03 03:04:00;;;;;;;;;;;;;;;21.47;31.78;101139.47;2091276;28;1910;-56
2022/05/03 03:05:03;;;;;;;;;;;;;;;21.48;31.62;101145.75;2091412;28;1044;-55
2022/05/03 03:06:03;;;;;;;;;;;;;;;21.48;31.41;101149.31;2091133;28;1093;-55
2022/05/03 03:07:04;;;;;;;;;;;;;;;21.48;31.68;101149.31;2091406;28;802;-55
2022/05/03 03:08:05;;;;;;;;;;;;;;;21.50;31.71;101153.78;2091328;28;1028;-55
2022/05/03 03:09:07;;;;;;;;;;;;;;;21.50;30.96;101159.16;2091339;28;905;-56
2022/05/03 03:10:12;;;;;;;;;;;;;;;21.47;31.92;101149.38;2091347;28;741;-55
2022/05/03 03:11:16;;;;;;;;;;;;;;;21.48;31.06;101132.28;2091422;28;945;-56
2022/05/03 03:12:30;;;;;;;;;;;;;;;21.47;31.01;101141.31;2091334;28;866;-55
2022/05/03 03:13:52;;;;;;;;;;;;;;;21.48;30.91;101148.47;2091377;28;834;-55
2022/05/03 03:14:58;;;;;;;;;;;;;;;21.49;31.20;101144.78;2091364;28;599;-55
2022/05/03 03:15:58;;;;;;;;;;;;;;;21.48;30.94;101143.94;2091382;28;1004;-56
2022/05/03 03:17:08;;;;;;;;;;;;;;;21.47;31.59;101142.16;2091316;28;1127;-55
2022/05/03 03:18:18;;;;;;;;;;;;;;;21.48;31.22;101152.03;2091269;28;1040;-56
2022/05/03 03:19:18;;;;;;;;;;;;;;;21.47;31.56;101147.56;2091348;28;517;-55
2022/05/03 03:20:22;;;;;;;;;;;;;;;21.46;31.48;101150.31;2091220;28;1063;-56
2022/05/03 03:21:24;;;;;;;;;;;;;;;21.45;31.38;101152.13;2091269;28;976;-55
2022/05/03 03:22:29;;;;;;;;;;;;;;;21.46;31.07;101153.88;2091195;28;861;-55
2022/05/03 03:23:31;;;;;;;;;;;;;;;21.47;31.90;101152.09;2091307;28;1951;-55
2022/05/03 03:24:32;;;;;;;;;;;;;;;21.47;31.05;101158.34;2091182;28;945;-55
2022/05/03 03:25:32;;;;;;;;;;;;;;;21.47;30.91;101152.94;2091293;28;972;-55
2022/05/03 03:26:34;;;;;;;;;;;;;;;21.48;31.78;101156.53;2091145;28;893;-55
2022/05/03 03:27:36;;;;;;;;;;;;;;;21.48;31.65;101165.50;2091244;28;802;-55
2022/05/03 03:28:36;;;;;;;;;;;;;;;21.48;31.06;101159.25;2091143;28;948;-55
2022/05/03 03:29:40;;;;;;;;;;;;;;;21.48;31.58;101165.50;2091394;28;787;-56
2022/05/03 03:30:41;;;;;;;;;;;;;;;21.47;30.80;101155.66;2098730;28;1183;-55
2022/05/03 03:31:42;;;;;;;;;;;;;;;21.48;31.68;101168.19;2098782;28;870;-55
2022/05/03 03:32:45;;;;;;;;;;;;;;;21.49;30.97;101158.28;2090549;28;886;-55
2022/05/03 03:33:47;;;;;;;;;;;;;;;21.48;30.93;101160.09;2090173;28;977;-56
2022/05/03 03:34:47;;;;;;;;;;;;;;;21.47;31.28;101169.13;2091182;28;1096;-55
2022/05/03 03:35:48;;;;;;;;;;;;;;;21.47;31.04;101163.72;2091069;28;982;-55
2022/05/03 03:36:49;;;;;;;;;;;;;;;21.48;30.88;101162.81;2091184;28;791;-55
2022/05/03 03:37:50;;;;;;;;;;;;;;;21.48;30.83;101165.50;2091139;28;973;-55
2022/05/03 03:38:50;;;;;;;;;;;;;;;21.48;31.72;101164.63;2091151;28;1076;-55
2022/05/03 03:39:50;;;;;;;;;;;;;;;21.48;30.69;101167.31;2091071;28;992;-56
2022/05/03 03:40:51;;;;;;;;;;;;;;;21.47;31.51;101174.50;2091117;28;945;-55
2022/05/03 03:41:51;;;;;;;;;;;;;;;21.47;30.98;101168.25;2091071;28;1040;-55
2022/05/03 03:42:51;;;;;;;;;;;;;;;21.48;31.31;101172.72;2091159;28;1131;-55
2022/05/03 03:43:55;;;;;;;;;;;;;;;21.48;31.30;101175.41;2091038;28;1949;-55
2022/05/03 03:44:58;;;;;;;;;;;;;;;21.47;31.57;101169.13;2091147;28;862;-55
2022/05/03 03:45:59;;;;;;;;;;;;;;;21.48;30.90;101175.41;2091257;28;846;-55
2022/05/03 03:47:03;;;;;;;;;;;;;;;21.48;31.32;101181.66;2091502;28;1056;-55
2022/05/03 03:48:04;;;;;;;;;;;;;;;21.47;31.65;101181.72;2091037;28;1079;-55
2022/05/03 03:49:04;;;;;;;;;;;;;;;21.47;31.28;101179.91;2091116;28;1003;-55
2022/05/03 03:50:05;;;;;;;;;;;;;;;21.47;31.66;101174.50;2090363;28;1643;-55
2022/05/03 03:51:06;;;;;;;;;;;;;;;21.47;31.20;101177.22;2090519;28;902;-55
2022/05/03 03:52:10;;;;;;;;;;;;;;;21.47;31.33;101171.81;2091135;28;758;-55
2022/05/03 03:53:10;;;;;;;;;;;;;;;21.47;31.09;101179.91;2091116;28;721;-56
2022/05/03 03:54:10;;;;;;;;;;;;;;;21.47;31.54;101185.28;2091057;28;795;-55
2022/05/03 03:55:11;;;;;;;;;;;;;;;21.46;30.79;101191.63;2091084;28;958;-55
2022/05/03 03:56:12;;;;;;;;;;;;;;;21.47;31.21;101193.38;2091001;28;775;-55
2022/05/03 03:57:13;;;;;;;;;;;;;;;21.47;31.65;101185.28;2091068;28;779;-56
2022/05/03 03:58:14;;;;;;;;;;;;;;;21.46;31.37;101185.34;2090973;28;847;-55
2022/05/03 03:59:14;;;;;;;;;;;;;;;21.45;31.28;101202.47;2091488;28;823;-55
2022/05/03 04:00:15;;;;;;;;;;;;;;;21.45;31.22;101195.25;2090986;28;779;-56
2022/05/03 04:01:15;;;;;;;;;;;;;;;22.00;30.00;101194.41;2091168;28;799;-56
2022/05/03 04:02:15;;;;;;;;;;;;;;;22.83;28.67;101192.41;2091092;28;965;-55
2022/05/03 04:03:16;;;;;;;;;;;;;;;23.38;28.26;101200.22;2090867;28;1906;-55
2022/05/03 04:04:16;;;;;;;;;;;;;;;23.77;27.26;101195.09;2091044;28;965;-55
2022/05/03 04:05:20;;;;;;;;;;;;;;;24.09;27.32;101198.31;2091065;28;783;-54
2022/05/03 04:06:21;;;;;;;;;;;;;;;24.37;26.14;101199.81;2091068;28;763;-55
2022/05/03 04:07:21;;;;;;;;;;;;;;;24.55;25.65;101198.13;2091071;28;779;-55
2022/05/03 04:08:21;;;;;;;;;;;;;;;24.82;26.10;101197.84;2090951;28;882;-55
2022/05/03 04:09:21;;;;;;;;;;;;;;;25.07;25.85;101191.28;2091066;28;779;-54
2022/05/03 04:10:22;;;;;;;;;;;;;;;25.27;25.24;101199.34;2090875;28;989;-54
2022/05/03 04:11:22;;;;;;;;;;;;;;;25.48;25.01;101202.00;2091180;28;985;-55
2022/05/03 04:12:22;;;;;;;;;;;;;;;25.69;24.91;101201.91;2090933;28;775;-55
2022/05/03 04:13:22;;;;;;;;;;;;;;;25.84;23.79;101200.25;2090802;28;1010;-54
2022/05/03 04:14:22;;;;;;;;;;;;;;;25.98;24.74;101197.72;2090943;28;973;-54
2022/05/03 04:15:23;;;;;;;;;;;;;;;26.18;23.84;101190.44;2091010;28;794;-54
2022/05/03 04:16:23;;;;;;;;;;;;;;;26.25;23.61;101181.00;2090939;28;996;-54
2022/05/03 04:17:23;;;;;;;;;;;;;;;26.36;23.59;101185.88;2091180;28;765;-54
2022/05/03 04:18:44;;;;;;;;;;;;;;;26.56;22.60;101189.34;2091017;28;787;-55
2022/05/03 04:19:44;;;;;;;;;;;;;;;26.77;22.64;101187.34;2091027;28;1521;-55
2022/05/03 04:20:44;;;;;;;;;;;;;;;26.83;22.99;101192.44;2090974;28;989;-54
2022/05/03 04:21:45;;;;;;;;;;;;;;;26.95;22.79;101193.63;2090941;28;767;-55
2022/05/03 04:22:46;;;;;;;;;;;;;;;27.12;22.45;101191.78;2090923;28;838;-55
2022/05/03 04:23:46;;;;;;;;;;;;;;;27.27;21.89;101193.66;2090806;28;1941;-55
2022/05/03 04:24:46;;;;;;;;;;;;;;;27.57;21.33;101197.47;2090988;28;783;-55
2022/05/03 04:25:46;;;;;;;;;;;;;;;27.80;21.14;101201.56;2090900;28;949;-55
2022/05/03 04:26:46;;;;;;;;;;;;;;;27.85;20.89;101206.75;2090956;28;1040;-55
2022/05/03 04:27:46;;;;;;;;;;;;;;;27.77;21.59;101199.00;2090885;28;851;-55
2022/05/03 04:28:47;;;;;;;;;;;;;;;28.03;21.23;101199.31;2090955;28;1044;-55
2022/05/03 04:29:47;;;;;;;;;;;;;;;28.04;20.66;101201.06;2091115;28;791;-55
2022/05/03 04:30:47;;;;;;;;;;;;;;;28.24;20.80;101203.53;2090972;28;1001;-55
2022/05/03 04:31:47;;;;;;;;;;;;;;;28.39;20.12;101198.97;2090827;28;1025;-55
2022/05/03 04:32:47;;;;;;;;;;;;;;;28.41;20.57;101201.59;2090934;28;778;-55
2022/05/03 04:33:48;;;;;;;;;;;;;;;28.45;20.26;101203.16;2090182;28;852;-55
2022/05/03 04:34:48;;;;;;;;;;;;;;;28.50;20.77;101206.47;2090347;28;929;-55
2022/05/03 04:35:48;;;;;;;;;;;;;;;28.57;20.64;101200.66;2090842;28;1032;-55
2022/05/03 04:36:49;;;;;;;;;;;;;;;28.38;19.90;101207.22;2091067;28;780;-55
2022/05/03 04:37:49;;;;;;;;;;;;;;;28.34;20.06;101205.66;2090760;28;1168;-55
2022/05/03 04:38:49;;;;;;;;;;;;;;;28.43;20.35;101207.81;2090930;28;981;-55
2022/05/03 04:39:49;;;;;;;;;;;;;;;28.74;20.09;101202.31;2090845;28;1036;-55
2022/05/03 04:40:50;;;;;;;;;;;;;;;28.82;19.80;101202.75;2090884;28;776;-55
2022/05/03 04:41:50;;;;;;;;;;;;;;;28.60;19.53;101203.19;2090990;28;910;-55
2022/05/03 04:42:51;;;;;;;;;;;;;;;28.64;20.32;101199.31;2090878;28;1017;-55
2022/05/03 04:43:51;;;;;;;;;;;;;;;28.84;19.80;101206.25;2090790;28;1953;-55
2022/05/03 04:44:52;;;;;;;;;;;;;;;28.85;19.60;101206.13;2091110;28;986;-55
2022/05/03 04:45:52;;;;;;;;;;;;;;;28.89;20.13;101198.66;2091728;28;827;-55
2022/05/03 04:46:53;;;;;;;;;;;;;;;29.11;19.46;101206.34;2092561;28;842;-55
2022/05/03 04:47:53;;;;;;;;;;;;;;;29.05;19.51;101200.41;2092437;28;918;-55
2022/05/03 04:48:53;;;;;;;;;;;;;;;28.99;19.41;101205.28;2092926;28;842;-55
2022/05/03 04:49:53;;;;;;;;;;;;;;;29.18;19.09;101209.53;2092493;28;926;-55
2022/05/03 04:50:53;;;;;;;;;;;;;;;29.23;19.36;101211.97;2092466;28;945;-55
2022/05/03 04:51:54;;;;;;;;;;;;;;;29.15;19.33;101204.28;2092593;28;834;-55
2022/05/03 04:52:54;;;;;;;;;;;;;;;29.25;19.02;101216.34;2092443;28;835;-55
2022/05/03 04:53:54;;;;;;;;;;;;;;;29.16;19.40;101183.34;2092355;28;830;-55
2022/05/03 04:54:54;;;;;;;;;;;;;;;29.05;19.51;101209.47;2092383;28;1020;-55
2022/05/03 04:55:54;;;;;;;;;;;;;;;29.32;18.95;101210.50;2091717;28;961;-55
2022/05/03 04:56:57;;;;;;;;;;;;;;;29.38;19.04;101212.84;2091794;28;867;-55
2022/05/03 04:57:58;;;;;;;;;;;;;;;29.37;19.28;101214.72;2092294;28;890;-55
2022/05/03 04:58:58;;;;;;;;;;;;;;;29.42;19.25;101219.88;2092535;28;795;-55
2022/05/03 04:59:58;;;;;;;;;;;;;;;29.33;19.67;101217.69;2092334;28;966;-55
2022/05/03 05:00:58;;;;;;;;;;;;;;;29.24;19.36;101224.66;2092394;28;780;-55
2022/05/03 05:01:58;;;;;;;;;;;;;;;29.35;19.25;101221.22;2092338;28;839;-54
2022/05/03 05:02:59;;;;;;;;;;;;;;;29.44;19.39;101216.03;2092311;28;1325;-54
2022/05/03 05:03:59;;;;;;;;;;;;;;;29.56;19.26;101219.84;2092222;28;1910;-54
2022/05/03 05:04:59;;;;;;;;;;;;;;;29.47;19.22;101219.56;2092422;28;925;-54
2022/05/03 05:05:59;;;;;;;;;;;;;;;29.62;18.96;101224.00;2092265;28;878;-54
2022/05/03 05:06:59;;;;;;;;;;;;;;;29.61;19.10;101227.72;2092370;28;1008;-54
2022/05/03 05:08:06;;;;;;;;;;;;;;;29.56;18.68;101229.88;2092257;28;1031;-54
2022/05/03 05:09:06;;;;;;;;;;;;;;;29.61;18.82;101226.84;2092401;28;798;-54
2022/05/03 05:11:26;;;;;;;;;;;;;;;29.69;19.10;101225.34;2092363;28;668;-54
2022/05/03 05:12:26;;;;;;;;;;;;;;;29.59;18.83;101224.22;2092282;28;775;-54
2022/05/03 05:13:26;;;;;;;;;;;;;;;29.44;19.03;101226.97;2092293;28;855;-54
2022/05/03 05:14:26;;;;;;;;;;;;;;;29.67;19.24;101224.56;2092201;28;969;-54
2022/05/03 05:15:27;;;;;;;;;;;;;;;29.57;19.25;101218.88;2092264;28;904;-55
2022/05/03 05:16:27;;;;;;;;;;;;;;;29.64;18.63;101232.09;2092170;28;814;-54
2022/05/03 05:17:27;;;;;;;;;;;;;;;29.63;19.38;101233.09;2092285;28;845;-55
2022/05/03 05:18:28;;;;;;;;;;;;;;;29.60;19.00;101231.41;2092209;28;854;-55
2022/05/03 05:19:28;;;;;;;;;;;;;;;29.54;18.96;101231.81;2092379;28;866;-54
2022/05/03 05:20:28;;;;;;;;;;;;;;;29.62;18.98;101224.00;2091446;28;969;-54
2022/05/03 05:21:28;;;;;;;;;;;;;;;29.62;18.82;101223.16;2091654;28;716;-55
2022/05/03 05:22:28;;;;;;;;;;;;;;;29.72;18.54;101232.47;2092119;28;1004;-54
2022/05/03 05:23:28;;;;;;;;;;;;;;;29.78;19.05;101233.91;2092199;28;1981;-54
2022/05/03 05:24:28;;;;;;;;;;;;;;;29.80;18.98;101234.69;2092121;28;1040;-54
2022/05/03 05:25:29;;;;;;;;;;;;;;;29.82;18.67;101230.84;2092236;28;855;-54
2022/05/03 05:26:29;;;;;;;;;;;;;;;29.93;18.50;101235.63;2092140;28;969;-54
2022/05/03 05:27:29;;;;;;;;;;;;;;;29.71;18.67;101242.50;2092258;28;787;-54
2022/05/03 05:28:29;;;;;;;;;;;;;;;29.73;18.42;101247.88;2092242;28;716;-54
2022/05/03 05:29:29;;;;;;;;;;;;;;;29.67;18.60;101226.44;2092197;28;853;-55
2022/05/03 05:30:30;;;;;;;;;;;;;;;29.60;18.58;101245.06;2092079;28;875;-54
2022/05/03 05:31:30;;;;;;;;;;;;;;;29.64;18.95;101243.88;2092177;28;973;-55
2022/05/03 05:32:30;;;;;;;;;;;;;;;29.56;18.97;101241.69;2092063;28;989;-55
2022/05/03 05:33:30;;;;;;;;;;;;;;;29.77;18.50;101238.47;2092194;28;806;-54
2022/05/03 05:34:30;;;;;;;;;;;;;;;29.92;18.89;101243.91;2092012;28;1012;-55
2022/05/03 05:35:30;;;;;;;;;;;;;;;29.83;18.75;101245.41;2092131;28;791;-55
2022/05/03 05:36:31;;;;;;;;;;;;;;;29.81;18.93;101247.34;2091997;28;1171;-55
2022/05/03 05:37:31;;;;;;;;;;;;;;;29.78;18.87;101237.50;2092114;28;1036;-55
2022/05/03 05:38:31;;;;;;;;;;;;;;;29.76;18.65;101236.72;2092044;28;845;-55
2022/05/03 05:39:32;;;;;;;;;;;;;;;29.80;18.38;101254.66;2092167;28;1040;-55
2022/05/03 05:40:32;;;;;;;;;;;;;;;29.73;18.63;101253.34;2091996;28;822;-55
2022/05/03 05:41:32;;;;;;;;;;;;;;;29.76;18.65;101247.66;2092108;28;842;-55
2022/05/03 05:42:32;;;;;;;;;;;;;;;29.91;18.67;101253.06;2092026;28;958;-55
2022/05/03 05:43:35;;;;;;;;;;;;;;;29.88;18.32;101251.44;2092073;28;1980;-55
2022/05/03 05:44:35;;;;;;;;;;;;;;;29.91;18.26;101253.97;2091424;28;1297;-55
2022/05/03 05:45:37;;;;;;;;;;;;;;;29.90;18.73;101260.41;2091435;28;771;-55